createdAt,value
2023-01-29T00:00:21.788Z,2.56
2023-01-29T00:03:30.302Z,2.54
2023-01-29T00:06:38.912Z,2.59
2023-01-29T00:09:47.277Z,2.52
2023-01-29T00:13:02.263Z,2.52
2023-01-29T00:16:10.305Z,2.48
2023-01-29T00:19:19.148Z,2.49
2023-01-29T00:22:27.281Z,2.50
2023-01-29T00:25:44.936Z,2.52
2023-01-29T00:28:47.011Z,2.49
2023-01-29T00:32:01.490Z,2.40
2023-01-29T00:35:10.302Z,2.24
2023-01-29T00:38:25.902Z,2.29
2023-01-29T00:41:36.286Z,2.21
2023-01-29T00:44:51.354Z,2.08
2023-01-29T00:48:03.975Z,1.99
2023-01-29T00:51:33.308Z,1.83
2023-01-29T00:54:41.751Z,1.36
2023-01-29T00:57:50.363Z,1.92
2023-01-29T01:01:08.288Z,1.75
2023-01-29T01:04:11.573Z,1.77
2023-01-29T01:07:38.091Z,1.70
2023-01-29T01:10:41.880Z,1.45
2023-01-29T01:13:56.285Z,1.36
2023-01-29T01:16:58.196Z,1.40
2023-01-29T01:20:14.493Z,1.26
2023-01-29T01:23:29.324Z,1.40
2023-01-29T01:26:37.728Z,1.43
2023-01-29T01:29:46.281Z,1.39
2023-01-29T01:32:55.459Z,1.31
2023-01-29T01:36:08.288Z,1.39
2023-01-29T01:39:31.250Z,1.32
2023-01-29T01:42:47.319Z,1.23
2023-01-29T01:45:55.357Z,1.04
2023-01-29T01:49:11.037Z,0.97
2023-01-29T01:52:21.296Z,0.91
2023-01-29T01:55:31.945Z,0.85
2023-01-29T02:03:32.265Z,0.74
2023-01-29T02:06:48.248Z,0.58
2023-01-29T02:10:12.288Z,0.45
2023-01-29T02:13:21.416Z,0.43
2023-01-29T02:16:30.301Z,0.57
2023-01-29T02:19:47.982Z,0.68
2023-01-29T02:23:22.300Z,0.85
2023-01-29T02:26:56.862Z,0.89
2023-01-29T02:30:17.660Z,0.78
2023-01-29T02:33:45.755Z,0.82
2023-01-29T02:37:11.320Z,0.83
2023-01-29T02:40:41.313Z,0.80
2023-01-29T02:44:11.372Z,0.75
2023-01-29T02:47:32.723Z,0.75
2023-01-29T02:50:55.357Z,0.71
2023-01-29T02:54:06.252Z,0.68
2023-01-29T02:57:29.363Z,0.65
2023-01-29T03:00:50.364Z,0.61
2023-01-29T03:04:14.307Z,0.46
2023-01-29T03:07:38.309Z,0.65
2023-01-29T03:10:47.116Z,0.65
2023-01-29T03:14:11.280Z,0.62
2023-01-29T03:17:14.792Z,0.57
2023-01-29T03:20:35.294Z,0.60
2023-01-29T03:24:21.387Z,0.52
2023-01-29T03:27:40.308Z,0.56
2023-01-29T03:30:54.315Z,0.66
2023-01-29T03:34:14.909Z,0.88
2023-01-29T03:37:40.625Z,1.05
2023-01-29T03:41:00.332Z,1.09
2023-01-29T03:44:18.820Z,1.07
2023-01-29T03:47:50.307Z,1.08
2023-01-29T03:51:07.664Z,1.10
2023-01-29T03:54:31.311Z,1.19
2023-01-29T03:57:50.053Z,1.27
2023-01-29T04:01:06.446Z,1.30
2023-01-29T04:04:27.570Z,1.28
2023-01-29T04:07:37.326Z,1.28
2023-01-29T04:10:59.281Z,1.33
2023-01-29T04:14:09.246Z,1.43
2023-01-29T04:17:37.713Z,1.45
2023-01-29T04:20:46.668Z,1.40
2023-01-29T04:24:01.353Z,1.42
2023-01-29T04:27:19.694Z,1.43
2023-01-29T04:30:51.550Z,1.40
2023-01-29T04:34:23.326Z,1.41
2023-01-29T04:37:43.632Z,1.38
2023-01-29T04:41:18.275Z,1.07
2023-01-29T04:44:30.224Z,1.43
2023-01-29T04:48:04.339Z,1.41
2023-01-29T04:51:17.993Z,1.42
2023-01-29T04:54:47.320Z,1.46
2023-01-29T04:58:13.570Z,1.46
2023-01-29T05:01:25.314Z,1.43
2023-01-29T05:04:43.085Z,1.47
2023-01-29T05:07:52.355Z,1.53
2023-01-29T05:11:07.299Z,1.39
2023-01-29T05:14:12.676Z,1.61
2023-01-29T05:17:28.366Z,1.58
2023-01-29T05:20:40.336Z,1.57
2023-01-29T05:24:13.400Z,1.53
2023-01-29T05:27:37.719Z,1.48
2023-01-29T05:30:48.378Z,1.39
2023-01-29T05:33:57.352Z,1.44
2023-01-29T05:37:05.992Z,1.46
2023-01-29T05:40:20.349Z,1.31
2023-01-29T05:43:24.299Z,1.39
2023-01-29T05:46:39.365Z,1.38
2023-01-29T05:49:47.329Z,1.39
2023-01-29T05:53:05.277Z,1.31
2023-01-29T05:56:13.326Z,1.38
2023-01-29T05:59:21.964Z,1.38
2023-01-29T06:02:30.339Z,1.38
2023-01-29T06:05:52.465Z,1.36
2023-01-29T06:08:54.180Z,1.33
2023-01-29T06:12:10.293Z,1.22
2023-01-29T06:15:13.049Z,1.29
2023-01-29T06:18:27.334Z,1.10
2023-01-29T06:21:29.589Z,1.24
2023-01-29T06:24:44.364Z,1.24
2023-01-29T06:27:52.381Z,1.26
2023-01-29T06:31:23.806Z,1.21
2023-01-29T06:34:32.384Z,1.29
2023-01-29T06:37:40.974Z,1.32
2023-01-29T06:40:49.324Z,1.36
2023-01-29T06:43:57.849Z,1.26
2023-01-29T06:47:12.336Z,1.21
2023-01-29T06:50:20.336Z,1.22
2023-01-29T06:53:29.316Z,1.20
2023-01-29T06:56:37.308Z,1.21
2023-01-29T06:59:46.140Z,1.18
2023-01-29T07:02:56.325Z,1.18
2023-01-29T07:06:11.559Z,1.21
2023-01-29T07:09:20.293Z,1.19
2023-01-29T07:12:35.321Z,1.25
2023-01-29T07:15:44.196Z,1.03
2023-01-29T07:18:52.295Z,1.25
2023-01-29T07:22:00.881Z,1.22
2023-01-29T07:25:09.303Z,1.26
2023-01-29T07:28:19.095Z,1.31
2023-01-29T07:31:33.518Z,1.18
2023-01-29T07:34:41.340Z,1.26
2023-01-29T07:37:56.284Z,1.25
2023-01-29T07:41:04.303Z,1.25
2023-01-29T07:44:19.309Z,0.93
2023-01-29T07:47:21.338Z,1.36
2023-01-29T07:50:37.332Z,1.33
2023-01-29T07:53:39.106Z,1.26
2023-01-29T07:56:53.338Z,1.33
2023-01-29T07:59:55.159Z,1.32
2023-01-29T08:03:20.324Z,1.46
2023-01-29T08:06:22.123Z,1.27
2023-01-29T08:09:37.327Z,1.29
2023-01-29T08:12:45.372Z,1.45
2023-01-29T08:15:54.080Z,1.44
2023-01-29T08:19:03.343Z,1.43
2023-01-29T08:22:14.058Z,1.52
2023-01-29T08:25:22.915Z,1.54
2023-01-29T08:28:37.345Z,1.53
2023-01-29T08:31:39.163Z,1.50
2023-01-29T08:34:54.411Z,1.53
2023-01-29T08:37:58.280Z,1.49
2023-01-29T08:41:14.323Z,1.54
2023-01-29T08:44:16.040Z,0.68
2023-01-29T08:47:30.366Z,1.52
2023-01-29T08:50:39.309Z,1.50
2023-01-29T08:53:54.527Z,1.59
2023-01-29T08:57:05.358Z,1.42
2023-01-29T09:00:15.737Z,1.52
2023-01-29T09:03:24.360Z,1.45
2023-01-29T09:06:39.407Z,1.57
2023-01-29T09:09:41.171Z,1.57
2023-01-29T09:12:56.352Z,1.51
2023-01-29T09:16:00.142Z,1.54
2023-01-29T09:19:14.360Z,1.46
2023-01-29T09:25:56.323Z,1.39
2023-01-29T09:29:12.312Z,0.74
2023-01-29T09:32:52.061Z,1.53
2023-01-29T09:35:55.427Z,1.44
2023-01-29T09:39:03.979Z,1.56
2023-01-29T09:42:26.333Z,1.52
2023-01-29T09:46:12.405Z,1.50
2023-01-29T09:49:26.876Z,1.45
2023-01-29T09:52:46.314Z,1.53
2023-01-29T09:56:10.497Z,1.50
2023-01-29T09:59:20.316Z,1.59
2023-01-29T10:02:55.343Z,1.61
2023-01-29T10:06:27.739Z,1.74
2023-01-29T10:10:02.353Z,1.69
2023-01-29T10:13:28.444Z,1.78
2023-01-29T10:17:13.382Z,1.72
2023-01-29T10:20:53.329Z,1.67
2023-01-29T10:24:17.132Z,1.52
2023-01-29T10:27:37.333Z,1.59
2023-01-29T10:30:45.864Z,1.58
2023-01-29T10:34:07.563Z,1.58
2023-01-29T10:37:20.644Z,1.51
2023-01-29T10:40:36.369Z,1.53
2023-01-29T10:44:06.112Z,1.54
2023-01-29T10:47:45.411Z,1.55
2023-01-29T10:51:14.377Z,1.62
2023-01-29T10:54:33.233Z,1.60
2023-01-29T10:58:08.365Z,1.60
2023-01-29T11:01:23.446Z,1.31
2023-01-29T11:04:32.514Z,1.36
2023-01-29T11:07:47.408Z,1.45
2023-01-29T11:11:13.815Z,1.34
2023-01-29T11:37:29.372Z,1.49
2023-01-29T11:48:49.390Z,1.40
2023-01-29T11:57:04.376Z,1.42
2023-01-29T12:07:51.386Z,1.56
2023-01-29T12:26:57.410Z,1.68
2023-01-29T12:30:23.361Z,1.63
2023-01-29T12:33:49.309Z,1.75
2023-01-29T12:37:27.327Z,1.83
2023-01-29T12:40:37.357Z,1.73
2023-01-29T12:43:57.411Z,1.93
2023-01-29T12:47:09.452Z,1.87
2023-01-29T12:50:23.371Z,1.69
2023-01-29T12:53:41.383Z,1.69
2023-01-29T12:56:56.687Z,1.63
2023-01-29T13:00:12.344Z,1.56
2023-01-29T13:03:47.406Z,1.50
2023-01-29T13:07:01.388Z,1.00
2023-01-29T13:10:21.372Z,1.78
2023-01-29T13:13:36.824Z,1.78
2023-01-29T13:16:57.410Z,1.66
2023-01-29T13:20:11.346Z,1.52
2023-01-29T13:23:29.340Z,1.81
2023-01-29T13:26:31.611Z,1.53
2023-01-29T13:29:49.383Z,1.60
2023-01-29T13:33:00.644Z,1.58
2023-01-29T13:36:18.307Z,1.77
2023-01-29T13:39:40.331Z,1.73
2023-01-29T13:42:50.690Z,1.51
2023-01-29T13:46:01.413Z,1.53
2023-01-29T13:49:27.361Z,1.56
2023-01-29T13:52:48.323Z,1.44
2023-01-29T13:56:33.350Z,1.39
2023-01-29T13:59:50.981Z,1.29
2023-01-29T14:04:03.748Z,1.02
2023-01-29T14:07:49.316Z,0.85
2023-01-29T14:11:27.371Z,0.66
2023-01-29T14:14:58.393Z,0.63
2023-01-29T14:18:25.527Z,0.80
2023-01-29T14:21:38.387Z,0.68
2023-01-29T14:24:48.016Z,0.49
2023-01-29T14:28:04.469Z,0.44
2023-01-29T14:31:12.507Z,0.32
2023-01-29T14:34:59.730Z,0.26
2023-01-29T14:38:12.426Z,0.16
2023-01-29T14:41:31.020Z,0.11
2023-01-29T14:45:04.363Z,-0.04
2023-01-29T14:48:29.728Z,-0.11
2023-01-29T14:51:48.449Z,-0.17
2023-01-29T14:54:52.516Z,-0.13
2023-01-29T14:58:09.416Z,-0.17
2023-01-29T15:01:41.416Z,-0.22
2023-01-29T15:04:53.856Z,-0.18
2023-01-29T15:08:07.362Z,-0.17
2023-01-29T15:11:57.353Z,-0.13
2023-01-29T15:15:50.445Z,-0.45
2023-01-29T15:19:03.470Z,-0.20
2023-01-29T15:22:21.961Z,-0.30
2023-01-29T15:25:30.396Z,-0.46
2023-01-29T15:28:39.708Z,-0.40
2023-01-29T15:31:54.489Z,-0.45
2023-01-29T15:35:15.844Z,-0.41
2023-01-29T15:38:20.510Z,-0.41
2023-01-29T15:41:35.397Z,-0.60
2023-01-29T15:44:43.861Z,-0.39
2023-01-29T15:48:06.386Z,-0.61
2023-01-29T15:51:15.588Z,-0.57
2023-01-29T15:54:34.563Z,-0.55
2023-01-29T15:57:46.503Z,-0.48
2023-01-29T16:01:29.686Z,-0.51
2023-01-29T16:04:46.404Z,-0.54
2023-01-29T16:07:50.107Z,-0.56
2023-01-29T16:11:23.412Z,-0.63
2023-01-29T16:14:25.988Z,-1.09
2023-01-29T16:17:40.417Z,-0.81
2023-01-29T16:21:20.452Z,-0.74
2023-01-29T16:24:55.913Z,-0.75
2023-01-29T16:28:05.484Z,-1.26
2023-01-29T16:31:31.193Z,-0.98
2023-01-29T16:34:44.387Z,-0.73
2023-01-29T16:38:05.357Z,-0.74
2023-01-29T16:41:14.875Z,-0.67
2023-01-29T16:44:42.377Z,-0.65
2023-01-29T16:47:44.378Z,-0.72
2023-01-29T16:51:11.392Z,-0.84
2023-01-29T16:54:31.392Z,-0.73
2023-01-29T16:57:47.404Z,-0.73
2023-01-29T17:01:15.429Z,-0.89
2023-01-29T17:04:19.325Z,-0.87
2023-01-29T17:07:36.405Z,-0.84
2023-01-29T17:10:45.425Z,-0.85
2023-01-29T17:14:03.468Z,-0.87
2023-01-29T17:17:20.371Z,-0.88
2023-01-29T17:20:43.456Z,-0.98
2023-01-29T17:23:52.394Z,-1.06
2023-01-29T17:27:02.114Z,-1.02
2023-01-29T17:30:22.415Z,-1.09
2023-01-29T17:33:25.636Z,-1.12
2023-01-29T17:36:53.408Z,-1.18
2023-01-29T17:40:05.009Z,-1.17
2023-01-29T17:43:14.200Z,-1.24
2023-01-29T17:46:24.409Z,-1.17
2023-01-29T17:49:39.397Z,-1.20
2023-01-29T17:52:48.415Z,-1.19
2023-01-29T17:56:03.351Z,-1.21
2023-01-29T17:59:33.399Z,-1.32
2023-01-29T18:02:48.370Z,-1.56
2023-01-29T18:05:50.944Z,-1.36
2023-01-29T18:09:05.435Z,-1.45
2023-01-29T18:12:17.372Z,-1.42
2023-01-29T18:15:26.132Z,-1.51
2023-01-29T18:18:36.416Z,-1.55
2023-01-29T18:21:51.591Z,-1.54
2023-01-29T18:24:59.372Z,-1.57
2023-01-29T18:28:13.971Z,-1.55
2023-01-29T18:31:22.483Z,-1.59
2023-01-29T18:34:31.182Z,-1.55
2023-01-29T18:37:39.416Z,-1.60
2023-01-29T18:40:55.426Z,-1.70
2023-01-29T18:43:57.349Z,-1.57
2023-01-29T18:47:12.411Z,-1.69
2023-01-29T18:50:20.392Z,-1.70
2023-01-29T18:53:29.208Z,-1.68
2023-01-29T18:56:37.446Z,-1.82
2023-01-29T19:00:07.042Z,-1.78
2023-01-29T19:03:17.417Z,-1.95
2023-01-29T19:06:32.375Z,-1.82
2023-01-29T19:09:42.427Z,-1.85
2023-01-29T19:12:57.405Z,-1.84
2023-01-29T19:16:07.872Z,-1.78
2023-01-29T19:19:16.787Z,-1.83
2023-01-29T19:22:25.909Z,-1.72
2023-01-29T19:25:45.387Z,-1.76
2023-01-29T19:28:54.399Z,-1.90
2023-01-29T19:32:02.976Z,-1.74
2023-01-29T19:35:18.761Z,-1.76
2023-01-29T19:38:21.256Z,-1.91
2023-01-29T19:41:36.356Z,-1.79
2023-01-29T19:44:44.388Z,-1.75
2023-01-29T19:47:59.439Z,-1.79
2023-01-29T19:51:06.697Z,-1.90
2023-01-29T19:54:21.360Z,-1.90
2023-01-29T19:57:29.492Z,-1.87
2023-01-29T20:00:38.054Z,-2.00
2023-01-29T20:03:55.395Z,-1.86
2023-01-29T20:07:05.459Z,-1.84
2023-01-29T20:10:14.552Z,-2.02
2023-01-29T20:13:29.410Z,-1.91
2023-01-29T20:16:38.183Z,-1.87
2023-01-29T20:19:52.405Z,-1.90
2023-01-29T20:23:00.412Z,-1.87
2023-01-29T20:26:12.995Z,-1.89
2023-01-29T20:33:13.456Z,-1.86
2023-01-29T20:36:22.263Z,-1.91
2023-01-29T20:39:38.402Z,-1.95
2023-01-29T20:42:47.200Z,-1.99
2023-01-29T20:46:04.449Z,-2.02
2023-01-29T20:49:13.434Z,-2.03
2023-01-29T20:52:28.432Z,-2.10
2023-01-29T20:55:37.444Z,-2.05
2023-01-29T20:58:47.657Z,-2.04
2023-01-29T21:01:55.453Z,-2.01
2023-01-29T21:05:26.628Z,-2.04
2023-01-29T21:08:35.385Z,-1.99
2023-01-29T21:16:19.590Z,-2.06
2023-01-29T21:19:34.420Z,-2.08
2023-01-29T21:22:50.431Z,-1.99
2023-01-29T21:26:06.584Z,-2.16
2023-01-29T21:29:21.593Z,-2.16
2023-01-29T21:32:24.617Z,-1.97
2023-01-29T21:35:39.428Z,-2.07
2023-01-29T21:38:48.389Z,-2.03
2023-01-29T21:41:56.928Z,-2.06
2023-01-29T21:45:06.420Z,-2.13
2023-01-29T21:48:15.185Z,-2.07
2023-01-29T21:51:29.387Z,-2.16
2023-01-29T21:54:31.050Z,-2.16
2023-01-29T21:57:45.416Z,-2.22
2023-01-29T22:00:47.232Z,-2.21
2023-01-29T22:04:01.409Z,-2.13
2023-01-29T22:07:09.405Z,-2.11
2023-01-29T22:10:19.262Z,-2.13
2023-01-29T22:13:28.440Z,-2.16
2023-01-29T22:16:37.027Z,-2.14
2023-01-29T22:19:45.451Z,-2.14
2023-01-29T22:23:07.383Z,-2.02
2023-01-29T22:26:17.489Z,-2.05
2023-01-29T22:29:32.368Z,-2.07
2023-01-29T22:32:34.122Z,-1.97
2023-01-29T22:35:48.381Z,-2.15
2023-01-29T22:38:50.864Z,-1.99
2023-01-29T22:42:05.457Z,-1.99
2023-01-29T22:45:08.155Z,-2.03
2023-01-29T22:48:22.461Z,-2.00
2023-01-29T22:51:30.445Z,-2.17
2023-01-29T22:54:41.150Z,-2.05
2023-01-29T22:57:49.415Z,-1.98
2023-01-29T23:00:58.160Z,-2.01
2023-01-29T23:04:06.468Z,-1.94
2023-01-29T23:07:21.699Z,-1.91
2023-01-29T23:10:23.741Z,-1.95
2023-01-29T23:13:38.507Z,-1.88
2023-01-29T23:16:40.196Z,-1.92
2023-01-29T23:19:54.402Z,-1.86
2023-01-29T23:23:09.425Z,-1.85
2023-01-29T23:26:18.316Z,-1.82
2023-01-29T23:29:33.416Z,-1.91
2023-01-29T23:32:35.224Z,-1.97
2023-01-29T23:35:49.437Z,-1.98
2023-01-29T23:38:51.432Z,-2.01
2023-01-29T23:42:07.457Z,-2.20
2023-01-29T23:45:16.557Z,-2.25
2023-01-29T23:48:25.388Z,-2.24
2023-01-29T23:51:34.450Z,-2.39
2023-01-29T23:54:43.012Z,-2.57
2023-01-29T23:57:57.402Z,-2.62
